Time;durP1;ratioP1;P1;durP2;ratioP2;P2;SDS_P1;SDS_P2;PMS_P1;PMS_P2;Temp;Humidity;BMP_temperature;BMP_pressure;BME280_temperature;BME280_humidity;BME280_pressure;Samples;Min_cycle;Max_cycle;Signal;HPM_P1;HPM_P2
2021/01/17 11:24:13;;;;;;;13.90;3.60;;;18.90;49.90;;;;;;10611500;27;21057;-32
2021/01/17 11:29:35;;;;;;;15.77;3.87;;;19.00;49.30;;;;;;10553736;28;20198;-31
2021/01/17 11:34:57;;;;;;;7.50;3.43;;;19.20;49.60;;;;;;10584706;27;20265;-30
2021/01/17 11:40:21;;;;;;;9.13;3.30;;;19.20;49.20;;;;;;10533130;28;20211;-32
2021/01/17 11:45:44;;;;;;;12.87;3.60;;;19.20;48.90;;;;;;10557072;28;20219;-31
2021/01/17 11:51:06;;;;;;;137.13;43.03;;;19.30;49.00;;;;;;10574446;28;20200;-31
2021/01/17 11:56:29;;;;;;;129.17;42.03;;;19.30;48.90;;;;;;10568319;28;20206;-30
2021/01/17 12:01:51;;;;;;;106.60;36.83;;;19.30;47.70;;;;;;10568865;28;20223;-28
2021/01/17 12:07:13;;;;;;;89.37;28.30;;;19.20;48.20;;;;;;10567909;28;20203;-28
2021/01/17 12:12:37;;;;;;;63.67;25.23;;;19.10;44.90;;;;;;10564406;28;20708;-30
2021/01/17 12:17:58;;;;;;;55.43;21.73;;;19.10;44.80;;;;;;10569578;28;20206;-30
2021/01/17 12:23:20;;;;;;;24.87;12.90;;;19.10;45.60;;;;;;10558716;28;20223;-31
2021/01/17 12:28:43;;;;;;;11.53;8.60;;;17.60;32.90;;;;;;10534538;28;20240;-32
2021/01/17 12:34:05;;;;;;;11.23;8.33;;;15.90;32.40;;;;;;10541242;28;20216;-32
2021/01/17 12:39:28;;;;;;;9.87;6.80;;;16.00;34.40;;;;;;10583571;27;20206;-32
2021/01/17 12:44:51;;;;;;;15.87;6.43;;;17.90;38.90;;;;;;10582492;27;20211;-29
2021/01/17 12:50:13;;;;;;;10.60;6.60;;;18.50;40.70;;;;;;10599391;27;20194;-31
2021/01/17 12:55:35;;;;;;;11.73;6.77;;;18.70;41.50;;;;;;10575531;28;20589;-31
2021/01/17 13:00:57;;;;;;;8.17;5.23;;;18.80;41.80;;;;;;10573207;27;20249;-30
2021/01/17 13:06:19;;;;;;;8.87;5.33;;;18.80;41.70;;;;;;10579162;27;20222;-29
2021/01/17 13:11:41;;;;;;;6.63;4.63;;;18.90;42.00;;;;;;10576964;27;20210;-29
2021/01/17 13:17:06;;;;;;;8.10;4.80;;;18.90;42.00;;;;;;10564854;27;20199;-32
2021/01/17 13:22:28;;;;;;;8.90;5.07;;;18.90;41.80;;;;;;10577430;27;20227;-32
2021/01/17 13:27:51;;;;;;;6.10;4.50;;;19.00;41.80;;;;;;10579901;27;20203;-32
2021/01/17 13:33:14;;;;;;;6.50;4.30;;;19.00;42.30;;;;;;10586525;27;20221;-31
2021/01/17 13:38:35;;;;;;;8.40;4.63;;;19.00;42.00;;;;;;10580835;27;20472;-30
2021/01/17 13:43:58;;;;;;;7.17;4.63;;;19.10;42.50;;;;;;10574564;28;20556;-31
2021/01/17 13:49:21;;;;;;;5.67;4.20;;;19.00;42.90;;;;;;10562855;27;20219;-32
2021/01/17 13:54:43;;;;;;;5.23;4.07;;;19.00;43.60;;;;;;10574331;27;20669;-30
2021/01/17 14:00:06;;;;;;;6.07;3.93;;;19.00;44.10;;;;;;10577568;28;20219;-30
2021/01/17 14:05:29;;;;;;;4.97;3.53;;;18.90;44.40;;;;;;10560627;28;20260;-31
2021/01/17 14:10:50;;;;;;;5.27;3.60;;;19.00;44.70;;;;;;10568065;28;20199;-30
2021/01/17 14:16:12;;;;;;;4.97;3.40;;;19.00;45.00;;;;;;10529152;28;20320;-31
2021/01/17 14:21:42;;;;;;;5.30;3.20;;;18.90;45.10;;;;;;10535397;28;20265;-30
2021/01/17 14:27:04;;;;;;;4.23;2.93;;;19.00;45.30;;;;;;10583754;27;20199;-31
2021/01/17 14:32:27;;;;;;;4.23;2.93;;;18.90;45.40;;;;;;10619551;27;20210;-31
2021/01/17 14:37:51;;;;;;;6.37;3.30;;;19.00;45.50;;;;;;10618677;27;20684;-31
2021/01/17 14:43:13;;;;;;;4.70;3.20;;;19.00;45.70;;;;;;10591254;27;20454;-30
2021/01/17 14:48:35;;;;;;;3.33;2.77;;;19.00;45.70;;;;;;10601077;27;20201;-30
2021/01/17 14:53:58;;;;;;;4.33;3.00;;;19.00;45.80;;;;;;10618601;27;20218;-30
2021/01/17 14:59:22;;;;;;;4.13;3.03;;;19.00;45.90;;;;;;10618731;27;20247;-32
2021/01/17 15:04:44;;;;;;;3.23;2.90;;;19.00;46.00;;;;;;10617511;27;20210;-30
2021/01/17 15:10:08;;;;;;;4.20;3.10;;;19.00;46.00;;;;;;10617141;27;20539;-31
2021/01/17 15:15:29;;;;;;;3.97;3.00;;;19.00;46.00;;;;;;10614822;27;20225;-30
2021/01/17 15:20:51;;;;;;;4.20;2.97;;;19.00;46.20;;;;;;10602465;28;20222;-31
2021/01/17 15:26:14;;;;;;;3.30;2.57;;;19.00;46.30;;;;;;10608746;28;20195;-31
2021/01/17 15:31:36;;;;;;;2.87;2.50;;;19.00;46.40;;;;;;10617832;28;20206;-30
2021/01/17 15:36:58;;;;;;;3.60;2.87;;;19.00;46.50;;;;;;10617547;28;20614;-30
2021/01/17 15:47:25;;;;;;;2.97;2.63;;;19.00;46.50;;;;;;10527177;28;20208;-29
2021/01/17 15:52:49;;;;;;;3.27;2.70;;;19.00;46.70;;;;;;10533508;28;20215;-29
2021/01/17 15:58:10;;;;;;;3.23;2.67;;;19.00;46.70;;;;;;10533844;28;20200;-29
2021/01/17 16:03:33;;;;;;;4.47;3.00;;;19.00;46.70;;;;;;10511068;28;20263;-29
2021/01/17 16:08:54;;;;;;;3.73;2.50;;;19.00;46.70;;;;;;10503050;28;20833;-31
2021/01/17 16:14:16;;;;;;;3.07;2.53;;;19.10;46.90;;;;;;10500725;28;20242;-29
2021/01/17 16:19:39;;;;;;;4.87;2.73;;;19.10;46.70;;;;;;10541501;28;20200;-29
2021/01/17 16:25:01;;;;;;;3.47;2.50;;;19.10;46.80;;;;;;10531495;28;20215;-30
2021/01/17 16:30:23;;;;;;;3.03;2.57;;;19.10;46.80;;;;;;10498351;28;20196;-29
2021/01/17 16:35:46;;;;;;;2.97;2.63;;;19.10;47.00;;;;;;10524014;28;20211;-26
2021/01/17 16:41:08;;;;;;;3.43;2.70;;;19.20;47.10;;;;;;10526372;28;20204;-29
2021/01/17 16:46:30;;;;;;;2.87;2.43;;;19.20;47.10;;;;;;10490702;28;20223;-30
2021/01/17 16:51:52;;;;;;;3.47;2.60;;;19.30;47.00;;;;;;10527318;28;20196;-30
2021/01/17 16:57:15;;;;;;;2.83;2.60;;;19.30;47.10;;;;;;10534882;28;20200;-28
2021/01/17 17:02:36;;;;;;;4.10;2.63;;;19.40;47.20;;;;;;10535998;28;20215;-30
2021/01/17 17:07:59;;;;;;;4.67;2.70;;;19.40;47.10;;;;;;10498728;28;20188;-29
2021/01/17 17:13:21;;;;;;;3.70;2.90;;;19.30;47.20;;;;;;10510169;28;20287;-28
2021/01/17 17:18:42;;;;;;;3.27;2.73;;;19.30;47.90;;;;;;10538082;28;20217;-28
2021/01/17 17:24:07;;;;;;;3.47;2.90;;;19.40;46.90;;;;;;10504904;28;20586;-29
2021/01/17 17:29:28;;;;;;;6.80;3.27;;;19.50;46.40;;;;;;10496400;28;20208;-29
2021/01/17 17:34:50;;;;;;;6.10;3.23;;;19.60;46.10;;;;;;10505361;28;20606;-29
2021/01/17 17:40:13;;;;;;;6.57;3.57;;;19.70;46.20;;;;;;10498498;28;20214;-28
2021/01/17 17:45:35;;;;;;;7.20;3.00;;;19.60;46.20;;;;;;10496614;28;20216;-34
2021/01/17 17:50:57;;;;;;;7.83;3.83;;;19.60;46.00;;;;;;10496744;28;20656;-29
2021/01/17 17:56:19;;;;;;;5.43;2.87;;;19.70;46.00;;;;;;10494917;28;20216;-31
2021/01/17 18:01:42;;;;;;;6.33;3.47;;;19.70;46.10;;;;;;10494787;28;20216;-30
2021/01/17 18:07:04;;;;;;;5.43;3.10;;;19.70;46.50;;;;;;10493715;28;20194;-30
2021/01/17 18:12:26;;;;;;;6.63;3.67;;;19.90;45.70;;;;;;10529337;28;20215;-33
2021/01/17 18:17:48;;;;;;;6.37;2.80;;;20.30;45.10;;;;;;10515891;28;20206;-31
2021/01/17 18:23:10;;;;;;;4.77;2.93;;;20.30;45.20;;;;;;10495296;28;20295;-31
2021/01/17 18:28:32;;;;;;;6.43;3.87;;;20.20;45.50;;;;;;10509681;28;20210;-32
2021/01/17 18:33:54;;;;;;;15.70;7.20;;;20.10;45.90;;;;;;10494221;28;20752;-32
2021/01/17 18:39:16;;;;;;;19.07;6.77;;;20.10;46.40;;;;;;10496808;28;20188;-30
2021/01/17 18:44:38;;;;;;;13.83;7.03;;;20.00;43.10;;;;;;10509298;28;20703;-30
2021/01/17 18:50:00;;;;;;;11.70;6.73;;;19.90;44.20;;;;;;10491715;28;20200;-31
2021/01/17 18:55:23;;;;;;;14.90;6.87;;;20.30;44.50;;;;;;10492592;28;20706;-32
2021/01/17 19:00:46;;;;;;;10.23;5.43;;;20.20;44.90;;;;;;10492674;28;20212;-30
2021/01/17 19:06:08;;;;;;;11.77;5.67;;;20.20;45.20;;;;;;10493569;28;20271;-33
2021/01/17 19:11:29;;;;;;;9.73;5.47;;;20.10;45.60;;;;;;10476538;28;20207;-31
2021/01/17 19:16:52;;;;;;;9.07;5.33;;;20.00;45.80;;;;;;10500571;28;20189;-30
2021/01/17 19:22:14;;;;;;;9.27;4.83;;;19.90;46.10;;;;;;10519291;28;20218;-31
2021/01/17 19:27:35;;;;;;;11.90;4.70;;;19.80;46.90;;;;;;10451680;28;20192;-31
2021/01/17 19:33:00;;;;;;;9.13;4.53;;;19.80;46.40;;;;;;10486400;28;20205;-31
2021/01/17 19:38:22;;;;;;;7.60;4.43;;;19.90;46.50;;;;;;10463468;28;20188;-31
2021/01/17 19:43:43;;;;;;;7.30;4.37;;;19.80;46.50;;;;;;10509612;28;20224;-29
2021/01/17 19:49:07;;;;;;;8.03;4.40;;;19.90;46.40;;;;;;10501644;28;20195;-31
2021/01/17 19:54:28;;;;;;;6.17;4.20;;;19.90;46.60;;;;;;10500237;28;20215;-33
2021/01/17 19:59:50;;;;;;;4.90;3.93;;;20.10;46.10;;;;;;10495755;28;20207;-31
2021/01/17 20:05:14;;;;;;;6.07;4.13;;;20.00;46.50;;;;;;10496249;28;20227;-30
2021/01/17 20:10:37;;;;;;;6.27;4.17;;;19.80;46.40;;;;;;10499253;28;20195;-33
2021/01/17 20:15:58;;;;;;;6.77;4.20;;;19.80;46.40;;;;;;10538572;28;20417;-31
2021/01/17 20:21:21;;;;;;;6.00;3.87;;;19.70;46.70;;;;;;10496930;28;20208;-34
2021/01/17 20:26:43;;;;;;;6.10;4.13;;;19.50;47.10;;;;;;10502528;28;20614;-31
2021/01/17 20:32:08;;;;;;;6.93;3.70;;;19.40;47.40;;;;;;10496708;28;20216;-33
2021/01/17 20:37:31;;;;;;;7.83;4.30;;;19.30;47.70;;;;;;10497611;28;20196;-29
2021/01/17 20:42:52;;;;;;;5.37;3.43;;;19.20;47.90;;;;;;10496865;28;20216;-32
2021/01/17 20:48:14;;;;;;;5.33;3.63;;;19.20;47.90;;;;;;10496537;28;20188;-31
2021/01/17 20:53:36;;;;;;;4.20;3.33;;;19.20;47.90;;;;;;10496801;28;20204;-31
2021/01/17 20:58:58;;;;;;;5.27;3.23;;;19.20;47.90;;;;;;10496209;28;20582;-30
2021/01/17 21:04:20;;;;;;;5.17;3.17;;;19.10;48.00;;;;;;10497259;28;20239;-31
2021/01/17 21:09:42;;;;;;;4.87;3.10;;;19.20;48.20;;;;;;10495771;28;20185;-32
